sensor_id;sensor_type;location;lat;lon;timestamp;temperature;humidity
19168;DHT22;9716;53.114;18.040;2023-01-28T00:01:40;-0.80;99.90
19168;DHT22;9716;53.114;18.040;2023-01-28T00:04:08;-0.80;99.90
19168;DHT22;9716;53.114;18.040;2023-01-28T00:06:38;-0.80;99.90
19168;DHT22;9716;53.114;18.040;2023-01-28T00:09:06;-0.70;99.90
19168;DHT22;9716;53.114;18.040;2023-01-28T00:11:35;-0.70;99.90
19168;DHT22;9716;53.114;18.040;2023-01-28T00:14:03;-0.70;99.90
19168;DHT22;9716;53.114;18.040;2023-01-28T00:16:31;-0.60;99.90
19168;DHT22;9716;53.114;18.040;2023-01-28T00:19:01;-0.60;99.90
19168;DHT22;9716;53.114;18.040;2023-01-28T00:21:30;-0.50;99.90
19168;DHT22;9716;53.114;18.040;2023-01-28T00:23:58;-0.50;99.90
19168;DHT22;9716;53.114;18.040;2023-01-28T00:26:27;-0.40;99.90
19168;DHT22;9716;53.114;18.040;2023-01-28T00:28:55;-0.40;99.90
19168;DHT22;9716;53.114;18.040;2023-01-28T00:31:25;-0.30;99.90
19168;DHT22;9716;53.114;18.040;2023-01-28T00:33:55;-0.30;99.90
19168;DHT22;9716;53.114;18.040;2023-01-28T00:36:26;-0.30;99.90
19168;DHT22;9716;53.114;18.040;2023-01-28T00:38:55;-0.30;99.90
19168;DHT22;9716;53.114;18.040;2023-01-28T00:41:27;-0.20;99.90
19168;DHT22;9716;53.114;18.040;2023-01-28T00:43:55;-0.20;99.90
19168;DHT22;9716;53.114;18.040;2023-01-28T00:46:24;-0.20;99.90
19168;DHT22;9716;53.114;18.040;2023-01-28T00:48:53;-0.10;99.90
19168;DHT22;9716;53.114;18.040;2023-01-28T00:51:22;0.00;99.90
19168;DHT22;9716;53.114;18.040;2023-01-28T00:53:51;0.10;99.90
19168;DHT22;9716;53.114;18.040;2023-01-28T00:56:20;0.10;99.90
19168;DHT22;9716;53.114;18.040;2023-01-28T00:58:48;0.10;99.90
19168;DHT22;9716;53.114;18.040;2023-01-28T01:01:19;0.10;99.90
19168;DHT22;9716;53.114;18.040;2023-01-28T01:03:47;0.10;99.90
19168;DHT22;9716;53.114;18.040;2023-01-28T01:06:24;0.10;99.90
19168;DHT22;9716;53.114;18.040;2023-01-28T01:08:53;0.10;99.90
19168;DHT22;9716;53.114;18.040;2023-01-28T01:11:22;0.10;99.90
19168;DHT22;9716;53.114;18.040;2023-01-28T01:13:52;0.10;99.90
19168;DHT22;9716;53.114;18.040;2023-01-28T01:16:21;0.10;99.90
19168;DHT22;9716;53.114;18.040;2023-01-28T01:18:50;0.10;99.90
19168;DHT22;9716;53.114;18.040;2023-01-28T01:21:22;0.20;99.90
19168;DHT22;9716;53.114;18.040;2023-01-28T01:23:52;0.20;99.90
19168;DHT22;9716;53.114;18.040;2023-01-28T01:26:21;0.20;99.90
19168;DHT22;9716;53.114;18.040;2023-01-28T01:28:50;0.30;99.90
19168;DHT22;9716;53.114;18.040;2023-01-28T01:31:20;0.30;99.90
19168;DHT22;9716;53.114;18.040;2023-01-28T01:33:50;0.30;99.90
19168;DHT22;9716;53.114;18.040;2023-01-28T01:36:19;0.30;99.90
19168;DHT22;9716;53.114;18.040;2023-01-28T01:38:53;0.30;99.90
19168;DHT22;9716;53.114;18.040;2023-01-28T01:41:26;0.30;99.90
19168;DHT22;9716;53.114;18.040;2023-01-28T01:43:56;0.40;99.90
19168;DHT22;9716;53.114;18.040;2023-01-28T01:46:32;0.40;99.90
19168;DHT22;9716;53.114;18.040;2023-01-28T01:49:07;0.40;99.90
19168;DHT22;9716;53.114;18.040;2023-01-28T01:51:39;0.40;99.90
19168;DHT22;9716;53.114;18.040;2023-01-28T01:54:09;0.40;99.90
19168;DHT22;9716;53.114;18.040;2023-01-28T01:56:40;0.50;99.90
19168;DHT22;9716;53.114;18.040;2023-01-28T01:59:12;0.50;99.90
19168;DHT22;9716;53.114;18.040;2023-01-28T02:01:43;0.50;99.90
19168;DHT22;9716;53.114;18.040;2023-01-28T02:04:16;0.50;99.90
19168;DHT22;9716;53.114;18.040;2023-01-28T02:06:47;0.50;99.90
19168;DHT22;9716;53.114;18.040;2023-01-28T02:09:23;0.60;99.90
19168;DHT22;9716;53.114;18.040;2023-01-28T02:11:55;0.50;99.90
19168;DHT22;9716;53.114;18.040;2023-01-28T02:14:26;0.60;99.90
19168;DHT22;9716;53.114;18.040;2023-01-28T02:16:59;0.50;99.90
19168;DHT22;9716;53.114;18.040;2023-01-28T02:19:32;0.60;99.90
19168;DHT22;9716;53.114;18.040;2023-01-28T02:25:15;0.60;99.90
19168;DHT22;9716;53.114;18.040;2023-01-28T02:28:11;0.60;99.90
19168;DHT22;9716;53.114;18.040;2023-01-28T02:30:51;0.60;99.90
19168;DHT22;9716;53.114;18.040;2023-01-28T02:33:26;0.60;99.90
19168;DHT22;9716;53.114;18.040;2023-01-28T02:35:57;0.60;99.90
19168;DHT22;9716;53.114;18.040;2023-01-28T02:38:32;0.60;99.90
19168;DHT22;9716;53.114;18.040;2023-01-28T02:41:06;0.60;99.90
19168;DHT22;9716;53.114;18.040;2023-01-28T02:43:39;0.60;99.90
19168;DHT22;9716;53.114;18.040;2023-01-28T02:46:16;0.60;99.90
19168;DHT22;9716;53.114;18.040;2023-01-28T02:49:05;0.70;99.90
19168;DHT22;9716;53.114;18.040;2023-01-28T02:51:44;0.70;99.90
19168;DHT22;9716;53.114;18.040;2023-01-28T02:54:19;0.70;99.90
19168;DHT22;9716;53.114;18.040;2023-01-28T02:56:54;0.70;99.90
19168;DHT22;9716;53.114;18.040;2023-01-28T02:59:28;0.70;99.90
19168;DHT22;9716;53.114;18.040;2023-01-28T03:02:07;0.70;99.90
19168;DHT22;9716;53.114;18.040;2023-01-28T03:04:43;0.70;99.90
19168;DHT22;9716;53.114;18.040;2023-01-28T03:07:14;0.70;99.90
19168;DHT22;9716;53.114;18.040;2023-01-28T03:09:45;0.70;99.90
19168;DHT22;9716;53.114;18.040;2023-01-28T03:12:18;0.70;99.90
19168;DHT22;9716;53.114;18.040;2023-01-28T03:15:09;0.80;99.90
19168;DHT22;9716;53.114;18.040;2023-01-28T03:18:00;0.80;99.90
19168;DHT22;9716;53.114;18.040;2023-01-28T03:20:50;0.80;99.90
19168;DHT22;9716;53.114;18.040;2023-01-28T03:23:43;0.80;99.90
19168;DHT22;9716;53.114;18.040;2023-01-28T03:26:36;0.80;99.90
19168;DHT22;9716;53.114;18.040;2023-01-28T03:29:23;0.80;99.90
19168;DHT22;9716;53.114;18.040;2023-01-28T03:32:12;0.80;99.90
19168;DHT22;9716;53.114;18.040;2023-01-28T03:34:58;0.80;99.90
19168;DHT22;9716;53.114;18.040;2023-01-28T03:37:44;0.80;99.90
19168;DHT22;9716;53.114;18.040;2023-01-28T03:40:13;0.80;99.90
19168;DHT22;9716;53.114;18.040;2023-01-28T03:42:41;0.70;99.90
19168;DHT22;9716;53.114;18.040;2023-01-28T03:45:10;0.80;99.90
19168;DHT22;9716;53.114;18.040;2023-01-28T03:47:56;0.80;99.90
19168;DHT22;9716;53.114;18.040;2023-01-28T03:50:24;0.80;99.90
19168;DHT22;9716;53.114;18.040;2023-01-28T03:52:53;0.80;99.90
19168;DHT22;9716;53.114;18.040;2023-01-28T03:55:41;0.80;99.90
19168;DHT22;9716;53.114;18.040;2023-01-28T03:58:10;0.80;99.90
19168;DHT22;9716;53.114;18.040;2023-01-28T04:00:40;0.80;99.90
19168;DHT22;9716;53.114;18.040;2023-01-28T04:03:12;0.80;99.90
19168;DHT22;9716;53.114;18.040;2023-01-28T04:05:43;0.80;99.90
19168;DHT22;9716;53.114;18.040;2023-01-28T04:08:12;0.80;99.90
19168;DHT22;9716;53.114;18.040;2023-01-28T04:10:41;0.80;99.90
19168;DHT22;9716;53.114;18.040;2023-01-28T04:13:10;0.80;99.90
19168;DHT22;9716;53.114;18.040;2023-01-28T04:15:39;0.80;99.90
19168;DHT22;9716;53.114;18.040;2023-01-28T04:18:10;0.80;99.90
19168;DHT22;9716;53.114;18.040;2023-01-28T04:20:39;0.80;99.90
19168;DHT22;9716;53.114;18.040;2023-01-28T04:23:08;0.80;99.90
19168;DHT22;9716;53.114;18.040;2023-01-28T04:25:36;0.80;99.90
19168;DHT22;9716;53.114;18.040;2023-01-28T04:28:05;0.80;99.90
19168;DHT22;9716;53.114;18.040;2023-01-28T04:30:33;0.80;99.90
19168;DHT22;9716;53.114;18.040;2023-01-28T04:33:02;0.80;99.90
19168;DHT22;9716;53.114;18.040;2023-01-28T04:35:31;0.80;99.90
19168;DHT22;9716;53.114;18.040;2023-01-28T04:38:00;0.80;99.90
19168;DHT22;9716;53.114;18.040;2023-01-28T04:40:28;0.90;99.90
19168;DHT22;9716;53.114;18.040;2023-01-28T04:42:57;0.90;99.90
19168;DHT22;9716;53.114;18.040;2023-01-28T04:45:26;0.90;99.90
19168;DHT22;9716;53.114;18.040;2023-01-28T04:47:54;0.90;99.90
19168;DHT22;9716;53.114;18.040;2023-01-28T04:50:23;0.90;99.90
19168;DHT22;9716;53.114;18.040;2023-01-28T04:52:53;0.90;99.90
19168;DHT22;9716;53.114;18.040;2023-01-28T04:55:21;0.90;99.90
19168;DHT22;9716;53.114;18.040;2023-01-28T04:57:50;0.90;99.90
19168;DHT22;9716;53.114;18.040;2023-01-28T05:00:18;0.90;99.90
19168;DHT22;9716;53.114;18.040;2023-01-28T05:02:47;0.90;99.90
19168;DHT22;9716;53.114;18.040;2023-01-28T05:05:16;0.90;99.90
19168;DHT22;9716;53.114;18.040;2023-01-28T05:07:50;0.90;99.90
19168;DHT22;9716;53.114;18.040;2023-01-28T05:10:20;0.80;99.90
19168;DHT22;9716;53.114;18.040;2023-01-28T05:12:49;0.80;99.90
19168;DHT22;9716;53.114;18.040;2023-01-28T05:15:18;0.80;99.90
19168;DHT22;9716;53.114;18.040;2023-01-28T05:17:46;0.80;99.90
19168;DHT22;9716;53.114;18.040;2023-01-28T05:20:15;0.80;99.90
19168;DHT22;9716;53.114;18.040;2023-01-28T05:22:44;0.80;99.90
19168;DHT22;9716;53.114;18.040;2023-01-28T05:25:12;0.80;99.90
19168;DHT22;9716;53.114;18.040;2023-01-28T05:27:47;0.80;99.90
19168;DHT22;9716;53.114;18.040;2023-01-28T05:30:16;0.80;99.90
19168;DHT22;9716;53.114;18.040;2023-01-28T05:32:45;0.80;99.90
19168;DHT22;9716;53.114;18.040;2023-01-28T05:35:14;0.80;99.90
19168;DHT22;9716;53.114;18.040;2023-01-28T05:37:43;0.90;99.90
19168;DHT22;9716;53.114;18.040;2023-01-28T05:40:12;0.90;99.90
19168;DHT22;9716;53.114;18.040;2023-01-28T05:42:43;0.90;99.90
19168;DHT22;9716;53.114;18.040;2023-01-28T05:45:11;0.90;99.90
19168;DHT22;9716;53.114;18.040;2023-01-28T05:47:40;0.90;99.90
19168;DHT22;9716;53.114;18.040;2023-01-28T05:50:12;0.90;99.90
19168;DHT22;9716;53.114;18.040;2023-01-28T05:52:42;0.90;99.90
19168;DHT22;9716;53.114;18.040;2023-01-28T05:55:10;0.90;99.90
19168;DHT22;9716;53.114;18.040;2023-01-28T05:57:39;0.90;99.90
19168;DHT22;9716;53.114;18.040;2023-01-28T06:00:10;0.90;99.90
19168;DHT22;9716;53.114;18.040;2023-01-28T06:02:39;0.90;99.90
19168;DHT22;9716;53.114;18.040;2023-01-28T06:05:09;0.90;99.90
19168;DHT22;9716;53.114;18.040;2023-01-28T06:07:37;0.90;99.90
19168;DHT22;9716;53.114;18.040;2023-01-28T06:10:07;0.90;99.90
19168;DHT22;9716;53.114;18.040;2023-01-28T06:12:35;0.90;99.90
19168;DHT22;9716;53.114;18.040;2023-01-28T06:15:04;0.90;99.90
19168;DHT22;9716;53.114;18.040;2023-01-28T06:17:35;0.90;99.90
19168;DHT22;9716;53.114;18.040;2023-01-28T06:20:03;0.90;99.90
19168;DHT22;9716;53.114;18.040;2023-01-28T06:22:32;0.90;99.90
19168;DHT22;9716;53.114;18.040;2023-01-28T06:25:00;0.80;99.90
19168;DHT22;9716;53.114;18.040;2023-01-28T06:27:29;0.80;99.90
19168;DHT22;9716;53.114;18.040;2023-01-28T06:29:58;0.80;99.90
19168;DHT22;9716;53.114;18.040;2023-01-28T06:32:27;0.80;99.90
19168;DHT22;9716;53.114;18.040;2023-01-28T06:34:57;0.90;99.90
19168;DHT22;9716;53.114;18.040;2023-01-28T06:37:25;0.90;99.90
19168;DHT22;9716;53.114;18.040;2023-01-28T06:39:54;0.90;99.90
19168;DHT22;9716;53.114;18.040;2023-01-28T06:42:22;0.90;99.90
19168;DHT22;9716;53.114;18.040;2023-01-28T06:44:51;0.90;99.90
19168;DHT22;9716;53.114;18.040;2023-01-28T06:47:19;0.90;99.90
19168;DHT22;9716;53.114;18.040;2023-01-28T06:49:48;0.90;99.90
19168;DHT22;9716;53.114;18.040;2023-01-28T06:52:17;0.90;99.90
19168;DHT22;9716;53.114;18.040;2023-01-28T06:54:48;0.90;99.90
19168;DHT22;9716;53.114;18.040;2023-01-28T06:57:17;0.90;99.90
19168;DHT22;9716;53.114;18.040;2023-01-28T06:59:45;0.90;99.90
19168;DHT22;9716;53.114;18.040;2023-01-28T07:02:14;0.90;99.90
19168;DHT22;9716;53.114;18.040;2023-01-28T07:04:43;0.90;99.90
19168;DHT22;9716;53.114;18.040;2023-01-28T07:07:11;0.90;99.90
19168;DHT22;9716;53.114;18.040;2023-01-28T07:09:43;1.00;99.90
19168;DHT22;9716;53.114;18.040;2023-01-28T07:12:12;1.00;99.90
19168;DHT22;9716;53.114;18.040;2023-01-28T07:14:40;1.00;99.90
19168;DHT22;9716;53.114;18.040;2023-01-28T07:17:08;1.00;99.90
19168;DHT22;9716;53.114;18.040;2023-01-28T07:19:37;1.10;99.90
19168;DHT22;9716;53.114;18.040;2023-01-28T07:22:05;1.10;99.90
19168;DHT22;9716;53.114;18.040;2023-01-28T07:24:34;1.10;99.90
19168;DHT22;9716;53.114;18.040;2023-01-28T07:27:04;1.10;99.90
19168;DHT22;9716;53.114;18.040;2023-01-28T07:29:32;1.10;99.90
19168;DHT22;9716;53.114;18.040;2023-01-28T07:32:01;1.10;99.90
19168;DHT22;9716;53.114;18.040;2023-01-28T07:34:30;1.10;99.90
19168;DHT22;9716;53.114;18.040;2023-01-28T07:36:59;1.10;99.90
19168;DHT22;9716;53.114;18.040;2023-01-28T07:39:28;1.10;99.90
19168;DHT22;9716;53.114;18.040;2023-01-28T07:41:57;1.10;99.90
19168;DHT22;9716;53.114;18.040;2023-01-28T07:44:26;1.10;99.90
19168;DHT22;9716;53.114;18.040;2023-01-28T07:46:55;1.10;99.90
19168;DHT22;9716;53.114;18.040;2023-01-28T07:49:23;1.10;99.90
19168;DHT22;9716;53.114;18.040;2023-01-28T07:51:52;1.20;99.90
19168;DHT22;9716;53.114;18.040;2023-01-28T07:54:20;1.20;99.90
19168;DHT22;9716;53.114;18.040;2023-01-28T07:56:49;1.20;99.90
19168;DHT22;9716;53.114;18.040;2023-01-28T07:59:17;1.20;99.90
19168;DHT22;9716;53.114;18.040;2023-01-28T08:01:47;1.30;99.90
19168;DHT22;9716;53.114;18.040;2023-01-28T08:04:15;1.30;99.90
19168;DHT22;9716;53.114;18.040;2023-01-28T08:06:44;1.30;99.90
19168;DHT22;9716;53.114;18.040;2023-01-28T08:09:12;1.40;99.90
19168;DHT22;9716;53.114;18.040;2023-01-28T08:11:41;1.40;99.90
19168;DHT22;9716;53.114;18.040;2023-01-28T08:14:10;1.40;99.90
19168;DHT22;9716;53.114;18.040;2023-01-28T08:16:38;1.40;99.90
19168;DHT22;9716;53.114;18.040;2023-01-28T08:19:09;1.40;99.90
19168;DHT22;9716;53.114;18.040;2023-01-28T08:21:37;1.40;99.90
19168;DHT22;9716;53.114;18.040;2023-01-28T08:24:06;1.40;99.90
19168;DHT22;9716;53.114;18.040;2023-01-28T08:26:35;1.40;99.90
19168;DHT22;9716;53.114;18.040;2023-01-28T08:29:04;1.50;99.90
19168;DHT22;9716;53.114;18.040;2023-01-28T08:31:32;1.60;99.90
19168;DHT22;9716;53.114;18.040;2023-01-28T08:34:00;1.70;99.90
19168;DHT22;9716;53.114;18.040;2023-01-28T08:36:31;1.70;99.90
19168;DHT22;9716;53.114;18.040;2023-01-28T08:38:59;1.80;99.90
19168;DHT22;9716;53.114;18.040;2023-01-28T08:41:29;1.80;99.90
19168;DHT22;9716;53.114;18.040;2023-01-28T08:43:57;1.90;99.90
19168;DHT22;9716;53.114;18.040;2023-01-28T08:46:26;1.90;99.90
19168;DHT22;9716;53.114;18.040;2023-01-28T08:48:55;2.00;99.90
19168;DHT22;9716;53.114;18.040;2023-01-28T08:51:23;2.00;99.90
19168;DHT22;9716;53.114;18.040;2023-01-28T08:53:53;2.00;99.90
19168;DHT22;9716;53.114;18.040;2023-01-28T08:56:22;2.10;99.90
19168;DHT22;9716;53.114;18.040;2023-01-28T08:58:52;2.10;99.90
19168;DHT22;9716;53.114;18.040;2023-01-28T09:01:20;2.20;99.90
19168;DHT22;9716;53.114;18.040;2023-01-28T09:03:49;2.20;99.90
19168;DHT22;9716;53.114;18.040;2023-01-28T09:06:18;2.20;99.90
19168;DHT22;9716;53.114;18.040;2023-01-28T09:08:46;2.30;99.90
19168;DHT22;9716;53.114;18.040;2023-01-28T09:11:16;2.30;99.90
19168;DHT22;9716;53.114;18.040;2023-01-28T09:13:44;2.40;99.90
19168;DHT22;9716;53.114;18.040;2023-01-28T09:16:13;2.40;99.90
19168;DHT22;9716;53.114;18.040;2023-01-28T09:18:41;2.40;99.90
19168;DHT22;9716;53.114;18.040;2023-01-28T09:21:10;2.40;99.90
19168;DHT22;9716;53.114;18.040;2023-01-28T09:23:39;2.50;99.90
19168;DHT22;9716;53.114;18.040;2023-01-28T09:26:07;2.60;99.90
19168;DHT22;9716;53.114;18.040;2023-01-28T09:28:37;2.60;99.90
19168;DHT22;9716;53.114;18.040;2023-01-28T09:31:08;2.70;99.90
19168;DHT22;9716;53.114;18.040;2023-01-28T09:33:37;2.70;99.90
19168;DHT22;9716;53.114;18.040;2023-01-28T09:36:08;2.70;99.90
19168;DHT22;9716;53.114;18.040;2023-01-28T09:38:37;2.80;99.90
19168;DHT22;9716;53.114;18.040;2023-01-28T09:41:25;2.80;99.90
19168;DHT22;9716;53.114;18.040;2023-01-28T09:44:05;2.90;99.90
19168;DHT22;9716;53.114;18.040;2023-01-28T09:46:35;2.90;99.90
19168;DHT22;9716;53.114;18.040;2023-01-28T09:49:11;2.90;99.90
19168;DHT22;9716;53.114;18.040;2023-01-28T09:51:47;2.90;99.90
19168;DHT22;9716;53.114;18.040;2023-01-28T09:54:25;2.90;99.90
19168;DHT22;9716;53.114;18.040;2023-01-28T09:57:00;2.90;99.90
19168;DHT22;9716;53.114;18.040;2023-01-28T09:59:34;2.90;99.90
19168;DHT22;9716;53.114;18.040;2023-01-28T10:02:22;2.90;99.90
19168;DHT22;9716;53.114;18.040;2023-01-28T10:04:58;2.90;99.90
19168;DHT22;9716;53.114;18.040;2023-01-28T10:07:36;2.90;99.90
19168;DHT22;9716;53.114;18.040;2023-01-28T10:10:09;2.90;99.90
19168;DHT22;9716;53.114;18.040;2023-01-28T10:12:48;2.90;99.90
19168;DHT22;9716;53.114;18.040;2023-01-28T10:15:34;2.90;99.90
19168;DHT22;9716;53.114;18.040;2023-01-28T10:18:10;2.90;99.90
19168;DHT22;9716;53.114;18.040;2023-01-28T10:20:48;2.80;99.90
19168;DHT22;9716;53.114;18.040;2023-01-28T10:23:20;2.80;99.90
19168;DHT22;9716;53.114;18.040;2023-01-28T10:25:49;2.80;99.90
19168;DHT22;9716;53.114;18.040;2023-01-28T10:28:19;2.80;99.90
19168;DHT22;9716;53.114;18.040;2023-01-28T10:30:50;2.80;99.90
19168;DHT22;9716;53.114;18.040;2023-01-28T10:33:22;2.80;99.90
19168;DHT22;9716;53.114;18.040;2023-01-28T10:35:53;2.80;99.90
19168;DHT22;9716;53.114;18.040;2023-01-28T10:38:23;2.90;99.90
19168;DHT22;9716;53.114;18.040;2023-01-28T10:40:55;2.80;99.90
19168;DHT22;9716;53.114;18.040;2023-01-28T10:43:29;2.80;99.90
19168;DHT22;9716;53.114;18.040;2023-01-28T10:46:03;2.70;99.90
19168;DHT22;9716;53.114;18.040;2023-01-28T10:48:35;2.70;99.90
19168;DHT22;9716;53.114;18.040;2023-01-28T10:51:05;2.70;99.90
19168;DHT22;9716;53.114;18.040;2023-01-28T10:53:38;2.70;99.90
19168;DHT22;9716;53.114;18.040;2023-01-28T10:56:08;2.70;99.90
19168;DHT22;9716;53.114;18.040;2023-01-28T10:58:48;2.70;99.90
19168;DHT22;9716;53.114;18.040;2023-01-28T11:01:19;2.70;99.90
19168;DHT22;9716;53.114;18.040;2023-01-28T11:03:53;2.70;99.90
19168;DHT22;9716;53.114;18.040;2023-01-28T11:06:27;2.70;99.90
19168;DHT22;9716;53.114;18.040;2023-01-28T11:08:56;2.70;99.90
19168;DHT22;9716;53.114;18.040;2023-01-28T11:11:27;2.70;99.90
19168;DHT22;9716;53.114;18.040;2023-01-28T11:13:56;2.60;99.90
19168;DHT22;9716;53.114;18.040;2023-01-28T11:16:28;2.60;99.90
19168;DHT22;9716;53.114;18.040;2023-01-28T11:19:01;2.70;99.90
19168;DHT22;9716;53.114;18.040;2023-01-28T11:21:31;2.70;99.90
19168;DHT22;9716;53.114;18.040;2023-01-28T11:24:01;2.70;99.90
19168;DHT22;9716;53.114;18.040;2023-01-28T11:26:32;2.70;99.90
19168;DHT22;9716;53.114;18.040;2023-01-28T11:29:02;2.70;99.90
19168;DHT22;9716;53.114;18.040;2023-01-28T11:31:38;2.70;99.90
19168;DHT22;9716;53.114;18.040;2023-01-28T11:34:13;2.70;99.90
19168;DHT22;9716;53.114;18.040;2023-01-28T11:36:50;2.70;99.90
19168;DHT22;9716;53.114;18.040;2023-01-28T11:39:20;2.70;99.90
19168;DHT22;9716;53.114;18.040;2023-01-28T11:41:51;2.70;99.90
19168;DHT22;9716;53.114;18.040;2023-01-28T11:44:37;2.80;99.90
19168;DHT22;9716;53.114;18.040;2023-01-28T11:47:23;2.80;99.90
19168;DHT22;9716;53.114;18.040;2023-01-28T11:50:14;2.90;99.90
19168;DHT22;9716;53.114;18.040;2023-01-28T11:52:53;2.90;99.90
19168;DHT22;9716;53.114;18.040;2023-01-28T11:55:45;2.90;99.90
19168;DHT22;9716;53.114;18.040;2023-01-28T11:58:21;2.80;99.90
19168;DHT22;9716;53.114;18.040;2023-01-28T12:01:01;2.80;99.90
19168;DHT22;9716;53.114;18.040;2023-01-28T12:03:54;2.80;99.90
19168;DHT22;9716;53.114;18.040;2023-01-28T12:06:52;2.80;99.90
19168;DHT22;9716;53.114;18.040;2023-01-28T12:09:29;2.80;99.90
19168;DHT22;9716;53.114;18.040;2023-01-28T12:12:16;2.80;99.90
19168;DHT22;9716;53.114;18.040;2023-01-28T12:15:09;2.80;99.90
19168;DHT22;9716;53.114;18.040;2023-01-28T12:17:54;2.80;99.90
19168;DHT22;9716;53.114;18.040;2023-01-28T12:20:30;2.80;99.90
19168;DHT22;9716;53.114;18.040;2023-01-28T12:23:12;2.80;99.90
19168;DHT22;9716;53.114;18.040;2023-01-28T12:25:58;2.80;99.90
19168;DHT22;9716;53.114;18.040;2023-01-28T12:28:55;2.80;99.90
19168;DHT22;9716;53.114;18.040;2023-01-28T12:31:37;2.80;99.90
19168;DHT22;9716;53.114;18.040;2023-01-28T12:34:47;2.70;99.90
19168;DHT22;9716;53.114;18.040;2023-01-28T12:37:27;2.70;99.90
19168;DHT22;9716;53.114;18.040;2023-01-28T12:40:32;2.60;99.90
19168;DHT22;9716;53.114;18.040;2023-01-28T12:43:12;2.60;99.90
19168;DHT22;9716;53.114;18.040;2023-01-28T12:45:45;2.50;99.90
19168;DHT22;9716;53.114;18.040;2023-01-28T12:48:18;2.50;99.90
19168;DHT22;9716;53.114;18.040;2023-01-28T12:50:51;2.50;99.90
19168;DHT22;9716;53.114;18.040;2023-01-28T12:53:27;2.50;99.90
19168;DHT22;9716;53.114;18.040;2023-01-28T12:56:04;2.40;99.90
19168;DHT22;9716;53.114;18.040;2023-01-28T12:58:39;2.30;99.90
19168;DHT22;9716;53.114;18.040;2023-01-28T13:01:13;2.30;99.90
19168;DHT22;9716;53.114;18.040;2023-01-28T13:03:48;2.20;99.90
19168;DHT22;9716;53.114;18.040;2023-01-28T13:06:24;2.20;99.90
19168;DHT22;9716;53.114;18.040;2023-01-28T13:09:00;2.20;99.90
19168;DHT22;9716;53.114;18.040;2023-01-28T13:11:33;2.20;99.90
19168;DHT22;9716;53.114;18.040;2023-01-28T13:14:03;2.20;99.90
19168;DHT22;9716;53.114;18.040;2023-01-28T13:16:32;2.20;99.90
19168;DHT22;9716;53.114;18.040;2023-01-28T13:19:06;2.10;99.90
19168;DHT22;9716;53.114;18.040;2023-01-28T13:21:35;2.10;99.90
19168;DHT22;9716;53.114;18.040;2023-01-28T13:24:22;2.10;99.90
19168;DHT22;9716;53.114;18.040;2023-01-28T13:26:53;2.10;99.90
19168;DHT22;9716;53.114;18.040;2023-01-28T13:29:30;2.10;99.90
19168;DHT22;9716;53.114;18.040;2023-01-28T13:32:00;2.10;99.90
19168;DHT22;9716;53.114;18.040;2023-01-28T13:34:34;2.10;99.90
19168;DHT22;9716;53.114;18.040;2023-01-28T13:37:13;2.10;99.90
19168;DHT22;9716;53.114;18.040;2023-01-28T13:39:48;2.10;99.90
19168;DHT22;9716;53.114;18.040;2023-01-28T13:42:24;2.10;99.90
19168;DHT22;9716;53.114;18.040;2023-01-28T13:44:52;2.10;99.90
19168;DHT22;9716;53.114;18.040;2023-01-28T13:47:30;2.10;99.90
19168;DHT22;9716;53.114;18.040;2023-01-28T13:50:02;2.10;99.90
19168;DHT22;9716;53.114;18.040;2023-01-28T13:52:34;2.10;99.90
19168;DHT22;9716;53.114;18.040;2023-01-28T13:55:13;2.10;99.90
19168;DHT22;9716;53.114;18.040;2023-01-28T13:58:29;2.10;99.90
19168;DHT22;9716;53.114;18.040;2023-01-28T14:01:31;2.00;99.90
19168;DHT22;9716;53.114;18.040;2023-01-28T14:04:31;2.10;99.90
19168;DHT22;9716;53.114;18.040;2023-01-28T14:07:38;2.10;99.90
19168;DHT22;9716;53.114;18.040;2023-01-28T14:13:14;2.10;99.90
19168;DHT22;9716;53.114;18.040;2023-01-28T14:16:01;2.10;99.90
19168;DHT22;9716;53.114;18.040;2023-01-28T14:18:42;2.20;99.90
19168;DHT22;9716;53.114;18.040;2023-01-28T14:21:14;2.20;99.90
19168;DHT22;9716;53.114;18.040;2023-01-28T14:23:48;2.20;99.90
19168;DHT22;9716;53.114;18.040;2023-01-28T14:26:33;2.20;99.90
19168;DHT22;9716;53.114;18.040;2023-01-28T14:29:14;2.30;99.90
19168;DHT22;9716;53.114;18.040;2023-01-28T14:31:45;2.20;99.90
19168;DHT22;9716;53.114;18.040;2023-01-28T14:34:20;2.20;99.90
19168;DHT22;9716;53.114;18.040;2023-01-28T14:36:52;2.20;99.90
19168;DHT22;9716;53.114;18.040;2023-01-28T14:39:24;2.20;99.90
19168;DHT22;9716;53.114;18.040;2023-01-28T14:41:59;2.20;99.90
19168;DHT22;9716;53.114;18.040;2023-01-28T14:44:31;2.20;99.90
19168;DHT22;9716;53.114;18.040;2023-01-28T14:47:20;2.10;99.90
19168;DHT22;9716;53.114;18.040;2023-01-28T14:50:18;2.10;99.90
19168;DHT22;9716;53.114;18.040;2023-01-28T14:52:58;2.10;99.90
19168;DHT22;9716;53.114;18.040;2023-01-28T14:55:35;2.10;99.90
19168;DHT22;9716;53.114;18.040;2023-01-28T14:58:14;2.10;99.90
19168;DHT22;9716;53.114;18.040;2023-01-28T15:00:53;2.10;99.90
19168;DHT22;9716;53.114;18.040;2023-01-28T15:03:22;2.10;99.90
19168;DHT22;9716;53.114;18.040;2023-01-28T15:06:02;2.10;99.90
19168;DHT22;9716;53.114;18.040;2023-01-28T15:08:31;2.10;99.90
19168;DHT22;9716;53.114;18.040;2023-01-28T15:11:02;2.00;99.90
19168;DHT22;9716;53.114;18.040;2023-01-28T15:13:37;2.00;99.90
19168;DHT22;9716;53.114;18.040;2023-01-28T15:16:06;2.00;99.90
19168;DHT22;9716;53.114;18.040;2023-01-28T15:18:39;2.00;99.90
19168;DHT22;9716;53.114;18.040;2023-01-28T15:21:09;2.00;99.90
19168;DHT22;9716;53.114;18.040;2023-01-28T15:23:40;1.90;99.90
19168;DHT22;9716;53.114;18.040;2023-01-28T15:26:14;1.90;99.90
19168;DHT22;9716;53.114;18.040;2023-01-28T15:28:46;1.90;99.90
19168;DHT22;9716;53.114;18.040;2023-01-28T15:31:19;1.90;99.90
19168;DHT22;9716;53.114;18.040;2023-01-28T15:33:56;1.80;99.90
19168;DHT22;9716;53.114;18.040;2023-01-28T15:36:25;1.80;99.90
19168;DHT22;9716;53.114;18.040;2023-01-28T15:38:54;1.80;99.90
19168;DHT22;9716;53.114;18.040;2023-01-28T15:41:26;1.70;99.90
19168;DHT22;9716;53.114;18.040;2023-01-28T15:44:05;1.70;99.90
19168;DHT22;9716;53.114;18.040;2023-01-28T15:46:34;1.70;99.90
19168;DHT22;9716;53.114;18.040;2023-01-28T15:49:14;1.70;99.90
19168;DHT22;9716;53.114;18.040;2023-01-28T15:51:48;1.70;99.90
19168;DHT22;9716;53.114;18.040;2023-01-28T15:54:19;1.60;99.90
19168;DHT22;9716;53.114;18.040;2023-01-28T15:56:47;1.60;99.90
19168;DHT22;9716;53.114;18.040;2023-01-28T15:59:21;1.60;99.90
19168;DHT22;9716;53.114;18.040;2023-01-28T16:01:51;1.60;99.90
19168;DHT22;9716;53.114;18.040;2023-01-28T16:04:30;1.60;99.90
19168;DHT22;9716;53.114;18.040;2023-01-28T16:07:03;1.50;99.90
19168;DHT22;9716;53.114;18.040;2023-01-28T16:09:33;1.50;99.90
19168;DHT22;9716;53.114;18.040;2023-01-28T16:12:02;1.50;99.90
19168;DHT22;9716;53.114;18.040;2023-01-28T16:14:41;1.50;99.90
19168;DHT22;9716;53.114;18.040;2023-01-28T16:17:14;1.50;99.90
19168;DHT22;9716;53.114;18.040;2023-01-28T16:19:46;1.50;99.90
19168;DHT22;9716;53.114;18.040;2023-01-28T16:22:19;1.50;99.90
19168;DHT22;9716;53.114;18.040;2023-01-28T16:24:49;1.50;99.90
19168;DHT22;9716;53.114;18.040;2023-01-28T16:27:21;1.50;99.90
19168;DHT22;9716;53.114;18.040;2023-01-28T16:29:51;1.50;99.90